sensor_id;sensor_type;location;lat;lon;timestamp;temperature;humidity
10171;DHT22;5127;50.922;6.988;2022-11-11T00:01:28;11.60;64.50
10171;DHT22;5127;50.922;6.988;2022-11-11T00:04:14;11.60;64.50
10171;DHT22;5127;50.922;6.988;2022-11-11T00:07:00;11.60;64.50
10171;DHT22;5127;50.922;6.988;2022-11-11T00:09:46;11.60;64.60
10171;DHT22;5127;50.922;6.988;2022-11-11T00:12:33;11.50;64.60
10171;DHT22;5127;50.922;6.988;2022-11-11T00:15:20;11.50;64.50
10171;DHT22;5127;50.922;6.988;2022-11-11T00:18:09;11.50;64.60
10171;DHT22;5127;50.922;6.988;2022-11-11T00:21:13;11.50;65.40
10171;DHT22;5127;50.922;6.988;2022-11-11T00:24:22;11.50;64.60
10171;DHT22;5127;50.922;6.988;2022-11-11T00:27:26;11.50;65.00
10171;DHT22;5127;50.922;6.988;2022-11-11T00:30:12;11.40;64.50
10171;DHT22;5127;50.922;6.988;2022-11-11T00:32:59;11.40;64.60
10171;DHT22;5127;50.922;6.988;2022-11-11T00:35:45;11.40;64.70
10171;DHT22;5127;50.922;6.988;2022-11-11T00:38:41;11.40;64.60
10171;DHT22;5127;50.922;6.988;2022-11-11T00:41:32;11.40;64.70
10171;DHT22;5127;50.922;6.988;2022-11-11T00:44:18;11.40;64.70
10171;DHT22;5127;50.922;6.988;2022-11-11T00:47:04;11.40;64.70
10171;DHT22;5127;50.922;6.988;2022-11-11T00:50:12;11.30;64.60
10171;DHT22;5127;50.922;6.988;2022-11-11T00:53:18;11.30;64.80
10171;DHT22;5127;50.922;6.988;2022-11-11T00:56:05;11.30;64.70
10171;DHT22;5127;50.922;6.988;2022-11-11T00:58:52;11.30;64.40
10171;DHT22;5127;50.922;6.988;2022-11-11T01:01:38;11.30;64.80
10171;DHT22;5127;50.922;6.988;2022-11-11T01:04:24;11.30;64.80
10171;DHT22;5127;50.922;6.988;2022-11-11T01:07:11;11.30;64.80
10171;DHT22;5127;50.922;6.988;2022-11-11T01:09:57;11.20;64.80
10171;DHT22;5127;50.922;6.988;2022-11-11T01:12:43;11.20;64.80
10171;DHT22;5127;50.922;6.988;2022-11-11T01:15:32;11.20;64.80
10171;DHT22;5127;50.922;6.988;2022-11-11T01:18:19;11.20;65.00
10171;DHT22;5127;50.922;6.988;2022-11-11T01:21:07;11.20;65.00
10171;DHT22;5127;50.922;6.988;2022-11-11T01:23:55;11.20;65.00
10171;DHT22;5127;50.922;6.988;2022-11-11T01:26:41;11.10;64.90
10171;DHT22;5127;50.922;6.988;2022-11-11T01:29:27;11.10;64.90
10171;DHT22;5127;50.922;6.988;2022-11-11T01:32:13;11.10;64.90
10171;DHT22;5127;50.922;6.988;2022-11-11T01:34:59;11.10;65.00
10171;DHT22;5127;50.922;6.988;2022-11-11T01:37:46;11.10;65.00
10171;DHT22;5127;50.922;6.988;2022-11-11T01:40:40;11.10;65.10
10171;DHT22;5127;50.922;6.988;2022-11-11T01:43:26;11.10;65.50
10171;DHT22;5127;50.922;6.988;2022-11-11T01:46:23;11.00;65.10
10171;DHT22;5127;50.922;6.988;2022-11-11T01:49:20;11.00;65.30
10171;DHT22;5127;50.922;6.988;2022-11-11T01:52:10;11.00;65.40
10171;DHT22;5127;50.922;6.988;2022-11-11T01:54:59;11.00;65.20
10171;DHT22;5127;50.922;6.988;2022-11-11T01:57:51;11.00;65.20
10171;DHT22;5127;50.922;6.988;2022-11-11T02:00:38;11.00;65.30
10171;DHT22;5127;50.922;6.988;2022-11-11T02:03:25;11.00;65.10
10171;DHT22;5127;50.922;6.988;2022-11-11T02:06:13;11.00;65.20
10171;DHT22;5127;50.922;6.988;2022-11-11T02:08:58;10.90;65.10
10171;DHT22;5127;50.922;6.988;2022-11-11T02:11:45;10.90;65.10
10171;DHT22;5127;50.922;6.988;2022-11-11T02:14:51;10.90;65.00
10171;DHT22;5127;50.922;6.988;2022-11-11T02:17:38;10.90;65.20
10171;DHT22;5127;50.922;6.988;2022-11-11T02:20:26;10.90;65.10
10171;DHT22;5127;50.922;6.988;2022-11-11T02:23:15;10.90;65.20
10171;DHT22;5127;50.922;6.988;2022-11-11T02:26:04;10.90;65.20
10171;DHT22;5127;50.922;6.988;2022-11-11T02:28:52;10.90;65.30
10171;DHT22;5127;50.922;6.988;2022-11-11T02:31:40;10.80;65.20
10171;DHT22;5127;50.922;6.988;2022-11-11T02:34:29;10.80;65.10
10171;DHT22;5127;50.922;6.988;2022-11-11T02:37:20;10.80;65.30
10171;DHT22;5127;50.922;6.988;2022-11-11T02:40:08;10.80;65.30
10171;DHT22;5127;50.922;6.988;2022-11-11T02:42:56;10.80;65.20
10171;DHT22;5127;50.922;6.988;2022-11-11T02:45:42;10.80;65.30
10171;DHT22;5127;50.922;6.988;2022-11-11T02:48:29;10.80;65.30
10171;DHT22;5127;50.922;6.988;2022-11-11T02:51:15;10.80;65.30
10171;DHT22;5127;50.922;6.988;2022-11-11T02:54:03;10.70;65.20
10171;DHT22;5127;50.922;6.988;2022-11-11T02:56:49;10.70;65.30
10171;DHT22;5127;50.922;6.988;2022-11-11T02:59:55;10.70;65.20
10171;DHT22;5127;50.922;6.988;2022-11-11T03:02:42;10.70;65.30
10171;DHT22;5127;50.922;6.988;2022-11-11T03:05:28;10.70;65.20
10171;DHT22;5127;50.922;6.988;2022-11-11T03:08:14;10.70;65.20
10171;DHT22;5127;50.922;6.988;2022-11-11T03:11:00;10.70;65.20
10171;DHT22;5127;50.922;6.988;2022-11-11T03:13:46;10.70;65.30
10171;DHT22;5127;50.922;6.988;2022-11-11T03:16:34;10.60;65.30
10171;DHT22;5127;50.922;6.988;2022-11-11T03:19:38;10.60;65.40
10171;DHT22;5127;50.922;6.988;2022-11-11T03:22:24;10.60;65.30
10171;DHT22;5127;50.922;6.988;2022-11-11T03:25:09;10.60;65.40
10171;DHT22;5127;50.922;6.988;2022-11-11T03:28:14;10.60;65.40
10171;DHT22;5127;50.922;6.988;2022-11-11T03:31:00;10.60;65.50
10171;DHT22;5127;50.922;6.988;2022-11-11T03:33:48;10.60;65.50
10171;DHT22;5127;50.922;6.988;2022-11-11T03:36:33;10.60;65.60
10171;DHT22;5127;50.922;6.988;2022-11-11T03:39:33;10.50;65.50
10171;DHT22;5127;50.922;6.988;2022-11-11T03:42:19;10.50;65.50
10171;DHT22;5127;50.922;6.988;2022-11-11T03:45:06;10.50;65.50
10171;DHT22;5127;50.922;6.988;2022-11-11T03:47:52;10.50;65.60
10171;DHT22;5127;50.922;6.988;2022-11-11T03:50:39;10.50;65.60
10171;DHT22;5127;50.922;6.988;2022-11-11T03:53:25;10.50;65.70
10171;DHT22;5127;50.922;6.988;2022-11-11T03:56:11;10.50;65.60
10171;DHT22;5127;50.922;6.988;2022-11-11T03:58:57;10.50;65.60
10171;DHT22;5127;50.922;6.988;2022-11-11T04:01:43;10.50;65.70
10171;DHT22;5127;50.922;6.988;2022-11-11T04:04:47;10.50;65.70
10171;DHT22;5127;50.922;6.988;2022-11-11T04:07:52;10.40;65.50
10171;DHT22;5127;50.922;6.988;2022-11-11T04:10:55;10.40;65.60
10171;DHT22;5127;50.922;6.988;2022-11-11T04:13:43;10.50;65.70
10171;DHT22;5127;50.922;6.988;2022-11-11T04:16:49;10.40;65.70
10171;DHT22;5127;50.922;6.988;2022-11-11T04:19:35;10.40;65.70
10171;DHT22;5127;50.922;6.988;2022-11-11T04:22:46;10.40;65.70
10171;DHT22;5127;50.922;6.988;2022-11-11T04:25:34;10.40;65.70
10171;DHT22;5127;50.922;6.988;2022-11-11T04:28:37;10.40;65.80
10171;DHT22;5127;50.922;6.988;2022-11-11T04:31:40;10.40;65.70
10171;DHT22;5127;50.922;6.988;2022-11-11T04:34:40;10.40;65.80
10171;DHT22;5127;50.922;6.988;2022-11-11T04:37:30;10.40;65.80
10171;DHT22;5127;50.922;6.988;2022-11-11T04:40:16;10.30;66.00
10171;DHT22;5127;50.922;6.988;2022-11-11T04:43:21;10.30;65.80
10171;DHT22;5127;50.922;6.988;2022-11-11T04:46:07;10.30;65.90
10171;DHT22;5127;50.922;6.988;2022-11-11T04:48:52;10.30;65.80
10171;DHT22;5127;50.922;6.988;2022-11-11T04:51:38;10.30;65.80
10171;DHT22;5127;50.922;6.988;2022-11-11T04:54:42;10.30;65.80
10171;DHT22;5127;50.922;6.988;2022-11-11T04:57:43;10.30;65.80
10171;DHT22;5127;50.922;6.988;2022-11-11T05:00:30;10.30;65.90
10171;DHT22;5127;50.922;6.988;2022-11-11T05:03:18;10.30;65.90
10171;DHT22;5127;50.922;6.988;2022-11-11T05:06:05;10.30;65.90
10171;DHT22;5127;50.922;6.988;2022-11-11T05:09:08;10.30;65.90
10171;DHT22;5127;50.922;6.988;2022-11-11T05:11:54;10.30;65.90
10171;DHT22;5127;50.922;6.988;2022-11-11T05:14:40;10.30;65.90
10171;DHT22;5127;50.922;6.988;2022-11-11T05:17:56;10.30;66.00
10171;DHT22;5127;50.922;6.988;2022-11-11T05:20:56;10.30;66.00
10171;DHT22;5127;50.922;6.988;2022-11-11T05:24:00;10.30;65.90
10171;DHT22;5127;50.922;6.988;2022-11-11T05:27:04;10.30;66.00
10171;DHT22;5127;50.922;6.988;2022-11-11T05:29:49;10.30;66.00
10171;DHT22;5127;50.922;6.988;2022-11-11T05:32:35;10.30;66.10
10171;DHT22;5127;50.922;6.988;2022-11-11T05:35:24;10.30;66.10
10171;DHT22;5127;50.922;6.988;2022-11-11T05:38:09;10.30;66.20
10171;DHT22;5127;50.922;6.988;2022-11-11T05:41:08;10.20;66.10
10171;DHT22;5127;50.922;6.988;2022-11-11T05:43:54;10.30;66.10
10171;DHT22;5127;50.922;6.988;2022-11-11T05:46:40;10.20;66.10
10171;DHT22;5127;50.922;6.988;2022-11-11T05:49:26;10.20;66.10
10171;DHT22;5127;50.922;6.988;2022-11-11T05:52:14;10.30;66.20
10171;DHT22;5127;50.922;6.988;2022-11-11T05:55:00;10.20;66.20
10171;DHT22;5127;50.922;6.988;2022-11-11T05:57:46;10.20;66.10
10171;DHT22;5127;50.922;6.988;2022-11-11T06:00:32;10.20;66.10
10171;DHT22;5127;50.922;6.988;2022-11-11T06:03:18;10.20;66.10
10171;DHT22;5127;50.922;6.988;2022-11-11T06:06:05;10.20;66.10
10171;DHT22;5127;50.922;6.988;2022-11-11T06:08:52;10.20;66.10
10171;DHT22;5127;50.922;6.988;2022-11-11T06:11:38;10.20;66.20
10171;DHT22;5127;50.922;6.988;2022-11-11T06:14:24;10.20;66.20
10171;DHT22;5127;50.922;6.988;2022-11-11T06:17:10;10.20;66.10
10171;DHT22;5127;50.922;6.988;2022-11-11T06:19:56;10.20;66.80
10171;DHT22;5127;50.922;6.988;2022-11-11T06:22:42;10.20;66.20
10171;DHT22;5127;50.922;6.988;2022-11-11T06:25:44;10.20;66.20
10171;DHT22;5127;50.922;6.988;2022-11-11T06:28:49;10.20;66.20
10171;DHT22;5127;50.922;6.988;2022-11-11T06:31:36;10.20;66.20
10171;DHT22;5127;50.922;6.988;2022-11-11T06:34:22;10.20;66.10
10171;DHT22;5127;50.922;6.988;2022-11-11T06:37:08;10.20;66.20
10171;DHT22;5127;50.922;6.988;2022-11-11T06:39:54;10.20;66.20
10171;DHT22;5127;50.922;6.988;2022-11-11T06:42:41;10.20;66.20
10171;DHT22;5127;50.922;6.988;2022-11-11T06:45:29;10.20;66.20
10171;DHT22;5127;50.922;6.988;2022-11-11T06:48:14;10.20;66.20
10171;DHT22;5127;50.922;6.988;2022-11-11T06:51:02;10.20;66.20
10171;DHT22;5127;50.922;6.988;2022-11-11T06:53:49;10.20;66.30
10171;DHT22;5127;50.922;6.988;2022-11-11T06:56:35;10.10;66.10
10171;DHT22;5127;50.922;6.988;2022-11-11T06:59:22;10.10;66.10
10171;DHT22;5127;50.922;6.988;2022-11-11T07:02:10;10.10;66.20
10171;DHT22;5127;50.922;6.988;2022-11-11T07:04:57;10.20;66.40
10171;DHT22;5127;50.922;6.988;2022-11-11T07:07:42;10.10;66.30
10171;DHT22;5127;50.922;6.988;2022-11-11T07:10:29;10.10;66.40
10171;DHT22;5127;50.922;6.988;2022-11-11T07:13:15;10.10;66.40
10171;DHT22;5127;50.922;6.988;2022-11-11T07:16:02;10.10;66.50
10171;DHT22;5127;50.922;6.988;2022-11-11T07:18:48;10.10;66.60
10171;DHT22;5127;50.922;6.988;2022-11-11T07:21:34;10.20;67.40
10171;DHT22;5127;50.922;6.988;2022-11-11T07:24:20;10.20;66.70
10171;DHT22;5127;50.922;6.988;2022-11-11T07:27:07;10.20;66.80
10171;DHT22;5127;50.922;6.988;2022-11-11T07:29:52;10.20;66.80
10171;DHT22;5127;50.922;6.988;2022-11-11T07:32:44;10.30;67.00
10171;DHT22;5127;50.922;6.988;2022-11-11T07:35:30;10.30;67.10
10171;DHT22;5127;50.922;6.988;2022-11-11T07:38:16;10.40;67.00
10171;DHT22;5127;50.922;6.988;2022-11-11T07:41:03;10.40;67.10
10171;DHT22;5127;50.922;6.988;2022-11-11T07:43:48;10.50;67.20
10171;DHT22;5127;50.922;6.988;2022-11-11T07:46:34;10.50;67.30
10171;DHT22;5127;50.922;6.988;2022-11-11T07:49:21;10.60;67.40
10171;DHT22;5127;50.922;6.988;2022-11-11T07:52:07;10.60;67.40
10171;DHT22;5127;50.922;6.988;2022-11-11T07:54:53;10.70;67.40
10171;DHT22;5127;50.922;6.988;2022-11-11T07:57:39;10.70;67.40
10171;DHT22;5127;50.922;6.988;2022-11-11T08:00:25;10.80;67.50
10171;DHT22;5127;50.922;6.988;2022-11-11T08:03:11;10.90;67.50
10171;DHT22;5127;50.922;6.988;2022-11-11T08:06:01;10.90;67.40
10171;DHT22;5127;50.922;6.988;2022-11-11T08:08:47;11.00;67.50
10171;DHT22;5127;50.922;6.988;2022-11-11T08:11:33;11.10;67.50
10171;DHT22;5127;50.922;6.988;2022-11-11T08:14:37;11.10;67.30
10171;DHT22;5127;50.922;6.988;2022-11-11T08:17:23;11.20;67.30
10171;DHT22;5127;50.922;6.988;2022-11-11T08:20:10;11.30;67.30
10171;DHT22;5127;50.922;6.988;2022-11-11T08:22:57;11.30;67.30
10171;DHT22;5127;50.922;6.988;2022-11-11T08:25:43;11.30;67.20
10171;DHT22;5127;50.922;6.988;2022-11-11T08:28:31;11.40;67.30
10171;DHT22;5127;50.922;6.988;2022-11-11T08:31:17;11.40;67.30
10171;DHT22;5127;50.922;6.988;2022-11-11T08:34:04;11.40;67.20
10171;DHT22;5127;50.922;6.988;2022-11-11T08:36:50;11.50;67.30
10171;DHT22;5127;50.922;6.988;2022-11-11T08:39:38;11.50;67.20
10171;DHT22;5127;50.922;6.988;2022-11-11T08:42:24;11.60;67.40
10171;DHT22;5127;50.922;6.988;2022-11-11T08:45:10;11.60;67.30
10171;DHT22;5127;50.922;6.988;2022-11-11T08:47:56;11.60;67.20
10171;DHT22;5127;50.922;6.988;2022-11-11T08:50:42;11.70;67.30
10171;DHT22;5127;50.922;6.988;2022-11-11T08:53:28;11.70;67.20
10171;DHT22;5127;50.922;6.988;2022-11-11T08:56:15;11.80;67.20
10171;DHT22;5127;50.922;6.988;2022-11-11T08:59:01;11.80;67.20
10171;DHT22;5127;50.922;6.988;2022-11-11T09:01:47;11.80;67.20
10171;DHT22;5127;50.922;6.988;2022-11-11T09:04:33;11.90;67.30
10171;DHT22;5127;50.922;6.988;2022-11-11T09:07:19;11.90;67.30
10171;DHT22;5127;50.922;6.988;2022-11-11T09:10:06;11.90;67.20
10171;DHT22;5127;50.922;6.988;2022-11-11T09:12:56;12.00;67.30
10171;DHT22;5127;50.922;6.988;2022-11-11T09:15:42;12.00;67.20
10171;DHT22;5127;50.922;6.988;2022-11-11T09:18:28;12.00;67.20
10171;DHT22;5127;50.922;6.988;2022-11-11T09:21:16;12.10;67.20
10171;DHT22;5127;50.922;6.988;2022-11-11T09:24:02;12.20;67.30
10171;DHT22;5127;50.922;6.988;2022-11-11T09:26:48;12.20;67.20
10171;DHT22;5127;50.922;6.988;2022-11-11T09:29:35;12.30;67.30
10171;DHT22;5127;50.922;6.988;2022-11-11T09:32:21;12.30;67.20
10171;DHT22;5127;50.922;6.988;2022-11-11T09:35:07;12.30;67.20
10171;DHT22;5127;50.922;6.988;2022-11-11T09:37:54;12.40;67.20
10171;DHT22;5127;50.922;6.988;2022-11-11T09:40:52;12.40;67.30
10171;DHT22;5127;50.922;6.988;2022-11-11T09:43:47;12.50;67.30
10171;DHT22;5127;50.922;6.988;2022-11-11T09:46:44;12.60;67.30
10171;DHT22;5127;50.922;6.988;2022-11-11T09:49:53;12.60;67.10
10171;DHT22;5127;50.922;6.988;2022-11-11T09:52:44;12.70;67.00
10171;DHT22;5127;50.922;6.988;2022-11-11T09:55:37;12.70;67.10
10171;DHT22;5127;50.922;6.988;2022-11-11T09:58:28;12.80;67.20
10171;DHT22;5127;50.922;6.988;2022-11-11T10:01:17;12.80;67.10
10171;DHT22;5127;50.922;6.988;2022-11-11T10:04:28;12.90;67.90
10171;DHT22;5127;50.922;6.988;2022-11-11T10:07:24;12.90;66.90
10171;DHT22;5127;50.922;6.988;2022-11-11T10:10:18;13.00;67.00
10171;DHT22;5127;50.922;6.988;2022-11-11T10:13:11;13.10;67.00
10171;DHT22;5127;50.922;6.988;2022-11-11T10:16:02;13.10;67.00
10171;DHT22;5127;50.922;6.988;2022-11-11T10:19:03;13.20;66.90
10171;DHT22;5127;50.922;6.988;2022-11-11T10:21:59;13.30;66.70
10171;DHT22;5127;50.922;6.988;2022-11-11T10:24:51;13.30;66.80
10171;DHT22;5127;50.922;6.988;2022-11-11T10:27:41;13.40;66.80
10171;DHT22;5127;50.922;6.988;2022-11-11T10:30:29;13.40;66.70
10171;DHT22;5127;50.922;6.988;2022-11-11T10:33:18;13.40;66.70
10171;DHT22;5127;50.922;6.988;2022-11-11T10:36:10;13.50;66.80
10171;DHT22;5127;50.922;6.988;2022-11-11T10:39:00;13.50;66.70
10171;DHT22;5127;50.922;6.988;2022-11-11T10:41:48;13.50;66.60
10171;DHT22;5127;50.922;6.988;2022-11-11T10:44:35;13.60;66.60
10171;DHT22;5127;50.922;6.988;2022-11-11T10:47:31;13.60;66.60
10171;DHT22;5127;50.922;6.988;2022-11-11T10:50:23;13.70;66.60
10171;DHT22;5127;50.922;6.988;2022-11-11T10:53:16;13.70;66.50
10171;DHT22;5127;50.922;6.988;2022-11-11T10:56:08;13.80;66.60
10171;DHT22;5127;50.922;6.988;2022-11-11T10:59:04;13.80;67.20
10171;DHT22;5127;50.922;6.988;2022-11-11T11:01:54;13.90;66.50
10171;DHT22;5127;50.922;6.988;2022-11-11T11:04:45;13.90;66.40
10171;DHT22;5127;50.922;6.988;2022-11-11T11:07:35;14.00;66.60
10171;DHT22;5127;50.922;6.988;2022-11-11T11:10:29;14.00;66.50
10171;DHT22;5127;50.922;6.988;2022-11-11T11:13:23;14.10;66.40
10171;DHT22;5127;50.922;6.988;2022-11-11T11:16:15;14.20;66.50
10171;DHT22;5127;50.922;6.988;2022-11-11T11:19:13;14.30;66.40
10171;DHT22;5127;50.922;6.988;2022-11-11T11:22:00;14.30;65.90
10171;DHT22;5127;50.922;6.988;2022-11-11T11:24:46;14.40;66.40
10171;DHT22;5127;50.922;6.988;2022-11-11T11:27:32;14.40;66.30
10171;DHT22;5127;50.922;6.988;2022-11-11T11:30:22;14.50;66.20
10171;DHT22;5127;50.922;6.988;2022-11-11T11:33:08;14.50;66.00
10171;DHT22;5127;50.922;6.988;2022-11-11T11:35:54;14.60;66.20
10171;DHT22;5127;50.922;6.988;2022-11-11T11:38:42;14.60;66.10
10171;DHT22;5127;50.922;6.988;2022-11-11T11:41:40;14.70;66.10
10171;DHT22;5127;50.922;6.988;2022-11-11T11:44:27;14.80;65.70
10171;DHT22;5127;50.922;6.988;2022-11-11T11:47:27;14.80;66.00
10171;DHT22;5127;50.922;6.988;2022-11-11T11:50:29;14.90;65.40
10171;DHT22;5127;50.922;6.988;2022-11-11T11:53:24;15.00;65.40
10171;DHT22;5127;50.922;6.988;2022-11-11T11:56:18;15.00;65.60
10171;DHT22;5127;50.922;6.988;2022-11-11T11:59:11;15.10;65.60
10171;DHT22;5127;50.922;6.988;2022-11-11T12:02:03;15.10;65.60
10171;DHT22;5127;50.922;6.988;2022-11-11T12:05:03;15.20;65.80
10171;DHT22;5127;50.922;6.988;2022-11-11T12:08:02;15.30;65.30
10171;DHT22;5127;50.922;6.988;2022-11-11T12:10:53;15.30;65.30
10171;DHT22;5127;50.922;6.988;2022-11-11T12:14:05;15.40;65.40
10171;DHT22;5127;50.922;6.988;2022-11-11T12:17:00;15.50;64.60
10171;DHT22;5127;50.922;6.988;2022-11-11T12:19:55;15.50;64.90
10171;DHT22;5127;50.922;6.988;2022-11-11T12:22:59;15.60;65.00
10171;DHT22;5127;50.922;6.988;2022-11-11T12:25:57;15.60;64.70
10171;DHT22;5127;50.922;6.988;2022-11-11T12:29:01;15.70;64.80
10171;DHT22;5127;50.922;6.988;2022-11-11T12:31:57;15.70;64.50
10171;DHT22;5127;50.922;6.988;2022-11-11T12:35:12;15.80;64.60
10171;DHT22;5127;50.922;6.988;2022-11-11T12:38:15;15.80;64.10
10171;DHT22;5127;50.922;6.988;2022-11-11T12:41:09;15.90;64.20
10171;DHT22;5127;50.922;6.988;2022-11-11T12:44:03;15.90;64.30
10171;DHT22;5127;50.922;6.988;2022-11-11T12:46:57;16.00;64.10
10171;DHT22;5127;50.922;6.988;2022-11-11T12:49:54;16.00;64.10
10171;DHT22;5127;50.922;6.988;2022-11-11T12:52:52;16.10;64.10
10171;DHT22;5127;50.922;6.988;2022-11-11T12:55:46;16.10;64.00
10171;DHT22;5127;50.922;6.988;2022-11-11T12:58:41;16.10;63.80
10171;DHT22;5127;50.922;6.988;2022-11-11T13:01:38;16.20;63.60
10171;DHT22;5127;50.922;6.988;2022-11-11T13:04:34;16.20;63.30
10171;DHT22;5127;50.922;6.988;2022-11-11T13:07:48;16.20;63.40
10171;DHT22;5127;50.922;6.988;2022-11-11T13:10:46;16.30;63.20
10171;DHT22;5127;50.922;6.988;2022-11-11T13:13:44;16.40;63.40
10171;DHT22;5127;50.922;6.988;2022-11-11T13:16:31;16.40;63.20
10171;DHT22;5127;50.922;6.988;2022-11-11T13:19:20;16.40;63.80
10171;DHT22;5127;50.922;6.988;2022-11-11T13:22:16;16.40;63.20
10171;DHT22;5127;50.922;6.988;2022-11-11T13:25:06;16.40;62.80
10171;DHT22;5127;50.922;6.988;2022-11-11T13:27:57;16.50;63.40
10171;DHT22;5127;50.922;6.988;2022-11-11T13:30:55;16.50;62.80
10171;DHT22;5127;50.922;6.988;2022-11-11T13:33:45;16.50;62.50
10171;DHT22;5127;50.922;6.988;2022-11-11T13:36:40;16.60;63.00
10171;DHT22;5127;50.922;6.988;2022-11-11T13:39:29;16.60;62.40
10171;DHT22;5127;50.922;6.988;2022-11-11T13:42:20;16.60;62.70
10171;DHT22;5127;50.922;6.988;2022-11-11T13:45:22;16.70;62.50
10171;DHT22;5127;50.922;6.988;2022-11-11T13:48:18;16.70;62.10
10171;DHT22;5127;50.922;6.988;2022-11-11T13:51:19;16.70;62.70
10171;DHT22;5127;50.922;6.988;2022-11-11T13:54:21;16.80;61.00
10171;DHT22;5127;50.922;6.988;2022-11-11T13:57:17;16.80;61.40
10171;DHT22;5127;50.922;6.988;2022-11-11T14:00:06;16.90;61.40
10171;DHT22;5127;50.922;6.988;2022-11-11T14:06:33;16.90;61.20
10171;DHT22;5127;50.922;6.988;2022-11-11T14:09:52;16.90;61.20
10171;DHT22;5127;50.922;6.988;2022-11-11T14:12:40;16.90;60.20
10171;DHT22;5127;50.922;6.988;2022-11-11T14:15:36;17.00;61.90
10171;DHT22;5127;50.922;6.988;2022-11-11T14:18:39;17.00;61.40
10171;DHT22;5127;50.922;6.988;2022-11-11T14:21:48;17.00;61.10
10171;DHT22;5127;50.922;6.988;2022-11-11T14:24:37;17.00;60.90
10171;DHT22;5127;50.922;6.988;2022-11-11T14:27:26;17.00;62.30
10171;DHT22;5127;50.922;6.988;2022-11-11T14:30:38;17.00;61.50
10171;DHT22;5127;50.922;6.988;2022-11-11T14:33:38;17.00;60.90
10171;DHT22;5127;50.922;6.988;2022-11-11T14:36:30;17.10;60.80
10171;DHT22;5127;50.922;6.988;2022-11-11T14:39:31;17.00;61.30
10171;DHT22;5127;50.922;6.988;2022-11-11T14:42:41;17.00;60.80
10171;DHT22;5127;50.922;6.988;2022-11-11T14:46:03;17.00;60.80
10171;DHT22;5127;50.922;6.988;2022-11-11T14:48:51;17.00;60.70
10171;DHT22;5127;50.922;6.988;2022-11-11T14:51:51;17.00;61.50
10171;DHT22;5127;50.922;6.988;2022-11-11T14:54:51;17.00;60.90
10171;DHT22;5127;50.922;6.988;2022-11-11T14:57:39;16.90;61.00
10171;DHT22;5127;50.922;6.988;2022-11-11T15:00:28;16.90;61.30
10171;DHT22;5127;50.922;6.988;2022-11-11T15:03:23;16.90;61.20
10171;DHT22;5127;50.922;6.988;2022-11-11T15:06:15;16.80;60.80
10171;DHT22;5127;50.922;6.988;2022-11-11T15:09:11;16.80;60.70
10171;DHT22;5127;50.922;6.988;2022-11-11T15:12:07;16.80;60.70
10171;DHT22;5127;50.922;6.988;2022-11-11T15:15:02;16.80;60.70
10171;DHT22;5127;50.922;6.988;2022-11-11T15:18:02;16.70;60.50
10171;DHT22;5127;50.922;6.988;2022-11-11T15:20:59;16.60;60.40
10171;DHT22;5127;50.922;6.988;2022-11-11T15:23:59;16.60;60.40
10171;DHT22;5127;50.922;6.988;2022-11-11T15:26:55;16.50;60.00
10171;DHT22;5127;50.922;6.988;2022-11-11T15:29:57;16.40;60.20
10171;DHT22;5127;50.922;6.988;2022-11-11T15:32:56;16.40;60.00
10171;DHT22;5127;50.922;6.988;2022-11-11T15:35:50;16.30;60.10
10171;DHT22;5127;50.922;6.988;2022-11-11T15:38:40;16.20;60.10
10171;DHT22;5127;50.922;6.988;2022-11-11T15:41:31;16.10;60.40
10171;DHT22;5127;50.922;6.988;2022-11-11T15:44:21;16.00;60.30
10171;DHT22;5127;50.922;6.988;2022-11-11T15:47:13;15.90;60.30
10171;DHT22;5127;50.922;6.988;2022-11-11T15:49:59;15.80;60.10
10171;DHT22;5127;50.922;6.988;2022-11-11T15:52:45;15.70;60.30
10171;DHT22;5127;50.922;6.988;2022-11-11T15:55:33;15.70;60.40
10171;DHT22;5127;50.922;6.988;2022-11-11T15:58:25;15.60;60.40
10171;DHT22;5127;50.922;6.988;2022-11-11T16:01:12;15.50;60.30
10171;DHT22;5127;50.922;6.988;2022-11-11T16:04:00;15.40;60.50
10171;DHT22;5127;50.922;6.988;2022-11-11T16:06:46;15.30;60.50
10171;DHT22;5127;50.922;6.988;2022-11-11T16:09:32;15.20;60.50
10171;DHT22;5127;50.922;6.988;2022-11-11T16:12:22;15.10;60.50
10171;DHT22;5127;50.922;6.988;2022-11-11T16:15:16;15.00;60.40
10171;DHT22;5127;50.922;6.988;2022-11-11T16:18:08;14.90;60.60
10171;DHT22;5127;50.922;6.988;2022-11-11T16:21:03;14.80;60.40
10171;DHT22;5127;50.922;6.988;2022-11-11T16:23:51;14.80;60.50
10171;DHT22;5127;50.922;6.988;2022-11-11T16:26:38;14.70;60.60
10171;DHT22;5127;50.922;6.988;2022-11-11T16:29:32;14.60;60.60
10171;DHT22;5127;50.922;6.988;2022-11-11T16:32:32;14.50;60.60
10171;DHT22;5127;50.922;6.988;2022-11-11T16:35:25;14.40;60.60
10171;DHT22;5127;50.922;6.988;2022-11-11T16:38:32;14.30;60.60
10171;DHT22;5127;50.922;6.988;2022-11-11T16:41:24;14.20;60.60
10171;DHT22;5127;50.922;6.988;2022-11-11T16:44:31;14.20;60.80
10171;DHT22;5127;50.922;6.988;2022-11-11T16:47:41;14.10;60.80
10171;DHT22;5127;50.922;6.988;2022-11-11T16:50:28;14.00;60.80
10171;DHT22;5127;50.922;6.988;2022-11-11T16:53:25;13.90;60.80
10171;DHT22;5127;50.922;6.988;2022-11-11T16:56:22;13.90;61.00
10171;DHT22;5127;50.922;6.988;2022-11-11T16:59:13;13.80;61.00
10171;DHT22;5127;50.922;6.988;2022-11-11T17:02:00;13.70;60.90
10171;DHT22;5127;50.922;6.988;2022-11-11T17:04:46;13.60;60.90
10171;DHT22;5127;50.922;6.988;2022-11-11T17:07:34;13.60;61.00
10171;DHT22;5127;50.922;6.988;2022-11-11T17:10:21;13.60;61.10
10171;DHT22;5127;50.922;6.988;2022-11-11T17:13:09;13.50;61.10
10171;DHT22;5127;50.922;6.988;2022-11-11T17:15:56;13.40;61.20
10171;DHT22;5127;50.922;6.988;2022-11-11T17:18:43;13.40;61.20
10171;DHT22;5127;50.922;6.988;2022-11-11T17:21:29;13.30;61.20
10171;DHT22;5127;50.922;6.988;2022-11-11T17:24:15;13.30;61.30
10171;DHT22;5127;50.922;6.988;2022-11-11T17:27:01;13.20;61.30
10171;DHT22;5127;50.922;6.988;2022-11-11T17:29:48;13.20;61.40
10171;DHT22;5127;50.922;6.988;2022-11-11T17:32:34;13.10;61.30
10171;DHT22;5127;50.922;6.988;2022-11-11T17:35:20;13.10;61.40
10171;DHT22;5127;50.922;6.988;2022-11-11T17:38:06;13.10;61.50
10171;DHT22;5127;50.922;6.988;2022-11-11T17:40:52;13.00;61.50
10171;DHT22;5127;50.922;6.988;2022-11-11T17:43:38;12.90;61.40
10171;DHT22;5127;50.922;6.988;2022-11-11T17:46:26;12.90;61.40
10171;DHT22;5127;50.922;6.988;2022-11-11T17:49:12;12.90;61.60
10171;DHT22;5127;50.922;6.988;2022-11-11T17:51:58;12.80;61.60
10171;DHT22;5127;50.922;6.988;2022-11-11T17:54:45;12.80;61.70
10171;DHT22;5127;50.922;6.988;2022-11-11T17:57:31;12.70;61.70
10171;DHT22;5127;50.922;6.988;2022-11-11T18:00:17;12.70;61.70
10171;DHT22;5127;50.922;6.988;2022-11-11T18:03:04;12.70;61.80
10171;DHT22;5127;50.922;6.988;2022-11-11T18:05:52;12.70;61.90
10171;DHT22;5127;50.922;6.988;2022-11-11T18:08:38;12.60;61.90
10171;DHT22;5127;50.922;6.988;2022-11-11T18:11:25;12.60;61.80
10171;DHT22;5127;50.922;6.988;2022-11-11T18:14:11;12.60;61.90
10171;DHT22;5127;50.922;6.988;2022-11-11T18:17:00;12.50;61.80
10171;DHT22;5127;50.922;6.988;2022-11-11T18:19:47;12.50;61.80
10171;DHT22;5127;50.922;6.988;2022-11-11T18:22:33;12.40;61.80